This is the latest recevied weather packets stored in our database for station/object GW7287. If no packets are shown the sender has not sent any weather packets the latest 10 day(s).
| Time | Temp. | Humidity | Pressure | Rain* | Wind** | Luminosity | Snow |
|---|---|---|---|---|---|---|---|
| 1787699822 | 20.56° C | 47% | 930.5 hPa | - | - | - | - |
| 1787698348 | 20.56° C | 47% | 930.5 hPa | - | - | - | - |
| 1787696349 | 20° C | 48% | 930.5 hPa | - | - | - | - |
| 1787696184 | 20° C | 48% | 930.5 hPa | - | - | - | - |
| 1787694663 | 20° C | 48% | 930.5 hPa | - | - | - | - |
| 1787692823 | 21.11° C | 43% | 930.1 hPa | - | - | - | - |
| 1787692710 | 21.11° C | 43% | 930.1 hPa | - | - | - | - |
| 1787691221 | 21.11° C | 43% | 930.1 hPa | - | - | - | - |
| 1787689225 | 22.78° C | 43% | 929.8 hPa | - | - | - | - |
| 1787689073 | 22.78° C | 43% | 929.8 hPa | - | - | - | - |
| 1787687602 | 22.78° C | 43% | 929.8 hPa | - | - | - | - |
| 1787685814 | 23.89° C | 42% | 929.8 hPa | - | - | - | - |
| 1787684974 | 23.89° C | 42% | 929.8 hPa | - | - | - | - |
| 1787682589 | 23.89° C | 42% | 929.8 hPa | - | - | - | - |
| 1787682297 | 25° C | 39% | 929.7 hPa | - | - | - | - |
| 1787680409 | 25° C | 39% | 929.7 hPa | - | - | - | - |
| 1787678563 | 25° C | 38% | 929.8 hPa | - | - | - | - |
| 1787677523 | 25° C | 38% | 929.8 hPa | - | - | - | - |
| 1787675299 | 25° C | 39% | 929.9 hPa | - | - | - | - |
| 1787675095 | 25° C | 39% | 929.9 hPa | - | - | - | - |
| 1787672151 | 25° C | 39% | 929.9 hPa | - | - | - | - |
| 1787672011 | 25° C | 39% | 929.9 hPa | - | - | - | - |
| 1787668648 | 23.89° C | 42% | 930.8 hPa | - | - | - | - |
| 1787668484 | 23.89° C | 42% | 930.8 hPa | - | - | - | - |
| 1787665381 | 23.89° C | 43% | 931.1 hPa | - | - | - | - |
* Rain since midnight (hover to see other rain measurements)
** Current wind speed in m/s (hover to see current wind gust speed)